Time;durP1;ratioP1;P1;durP2;ratioP2;P2;SDS_P1;SDS_P2;PMS_P1;PMS_P2;Temp;Humidity;BMP_temperature;BMP_pressure;BME280_temperature;BME280_humidity;BME280_pressure;Samples;Min_cycle;Max_cycle;Signal;HPM_P1;HPM_P2
2022/07/11 00:01:45;;;;;;;3.65;1.80;;;;;;;10.38;100.00;101226.31;4955052;28;20050;-78
2022/07/11 00:04:12;;;;;;;4.20;1.55;;;;;;;10.34;100.00;101221.97;4956222;28;20136;-79
2022/07/11 00:06:39;;;;;;;5.82;1.80;;;;;;;10.38;100.00;101230.75;4970540;28;20151;-81
2022/07/11 00:09:06;;;;;;;3.75;1.90;;;;;;;10.30;100.00;101228.19;4968889;28;20050;-79
2022/07/11 00:11:35;;;;;;;4.05;1.52;;;;;;;10.24;100.00;101225.59;4965812;28;20034;-81
2022/07/11 00:14:01;;;;;;;2.92;2.13;;;;;;;10.21;100.00;101222.94;4963116;28;20566;-80
2022/07/11 00:16:28;;;;;;;1.95;1.40;;;;;;;10.16;100.00;101228.25;4953068;28;20046;-80
2022/07/11 00:18:55;;;;;;;2.47;1.73;;;;;;;10.19;100.00;101221.22;4939004;28;20116;-81
2022/07/11 00:21:21;;;;;;;2.75;1.92;;;;;;;10.26;100.00;101220.31;4967541;28;20496;-80
2022/07/11 00:23:48;;;;;;;2.70;1.60;;;;;;;10.24;100.00;101217.66;4952211;28;20060;-81
2022/07/11 00:26:15;;;;;;;2.75;1.75;;;;;;;10.23;100.00;101228.25;4962281;28;20042;-81
2022/07/11 00:28:41;;;;;;;2.45;1.30;;;;;;;10.19;100.00;101218.59;4953834;28;20042;-81
2022/07/11 00:31:09;;;;;;;8.30;1.75;;;;;;;10.15;100.00;101223.88;4969914;28;20042;-80
2022/07/11 00:33:37;;;;;;;3.70;1.70;;;;;;;10.13;100.00;101219.50;4971420;28;20715;-80
2022/07/11 00:36:05;;;;;;;2.95;1.48;;;;;;;10.09;100.00;101216.03;4948528;28;20046;-80
2022/07/11 00:38:31;;;;;;;3.17;1.75;;;;;;;10.09;100.00;101212.53;4953813;28;20050;-81
2022/07/11 00:40:58;;;;;;;1.88;1.67;;;;;;;10.10;100.00;101217.78;4950241;28;21286;-80
2022/07/11 00:43:35;;;;;;;2.83;1.50;;;;;;;10.07;100.00;101220.44;4954559;28;20050;-80
2022/07/11 00:46:03;;;;;;;3.20;1.70;;;;;;;10.09;100.00;101212.53;4969628;28;20101;-81
2022/07/11 00:48:30;;;;;;;3.08;1.55;;;;;;;10.08;100.00;101210.75;4954546;28;20108;-80
2022/07/11 00:50:58;;;;;;;2.92;1.40;;;;;;;10.12;100.00;101221.28;4947385;28;21157;-80
2022/07/11 00:53:24;;;;;;;2.53;1.70;;;;;;;10.18;100.00;101212.44;4949668;28;20096;-80
2022/07/11 00:55:55;;;;;;;3.00;1.98;;;;;;;10.21;100.00;101216.81;4937450;28;20042;-80
2022/07/11 00:58:22;;;;;;;2.80;1.67;;;;;;;10.26;100.00;101222.97;4953491;28;20145;-80
2022/07/11 01:00:49;;;;;;;4.10;1.52;;;;;;;10.37;100.00;101219.31;4945389;28;20526;-80
2022/07/11 01:03:16;;;;;;;3.78;1.67;;;;;;;10.39;100.00;101217.50;4965292;28;20034;-80
2022/07/11 01:05:42;;;;;;;3.92;1.52;;;;;;;10.43;100.00;101213.09;4951103;28;21165;-80
2022/07/11 01:08:09;;;;;;;1.77;1.67;;;;;;;10.50;100.00;101213.88;4952673;28;20141;-80
2022/07/11 01:10:36;;;;;;;2.50;1.75;;;;;;;10.59;100.00;101209.34;4962539;28;20038;-80
2022/07/11 01:13:03;;;;;;;2.85;1.75;;;;;;;10.68;100.00;101198.69;4966388;28;20046;-80
2022/07/11 01:15:34;;;;;;;2.95;1.73;;;;;;;10.78;100.00;101204.75;4967309;28;20050;-80
2022/07/11 01:18:01;;;;;;;3.15;1.73;;;;;;;10.99;100.00;101219.44;5031296;23;20043;-83
2022/07/11 01:20:29;;;;;;;3.95;1.58;;;;;;;11.03;100.00;101210.59;4911315;28;20048;-83
2022/07/11 01:23:22;;;;;;;4.25;2.10;;;;;;;11.13;100.00;101203.38;4925261;28;20050;-83
2022/07/11 01:25:49;;;;;;;3.17;1.80;;;;;;;11.22;100.00;101205.91;4916516;28;20142;-83
2022/07/11 01:28:17;;;;;;;4.93;1.95;;;;;;;11.33;100.00;101200.44;4933681;28;20411;-83
2022/07/11 01:30:43;;;;;;;6.22;2.70;;;;;;;11.44;100.00;101202.06;4942472;28;20117;-83
2022/07/11 01:33:10;;;;;;;5.80;2.10;;;;;;;11.57;100.00;101198.28;4927698;28;20049;-83
2022/07/11 01:35:37;;;;;;;5.65;1.95;;;;;;;11.64;100.00;101201.72;4920905;28;20042;-83
2022/07/11 01:38:05;;;;;;;5.25;2.50;;;;;;;11.74;100.00;101199.78;4935743;28;20145;-83
2022/07/11 01:40:32;;;;;;;3.35;2.15;;;;;;;11.83;100.00;101203.19;4964906;28;20074;-83
2022/07/11 01:42:58;;;;;;;3.70;2.10;;;;;;;11.91;100.00;101196.91;4954297;28;20057;-83
2022/07/11 01:45:25;;;;;;;3.88;1.70;;;;;;;11.97;100.00;101194.16;4965780;28;20043;-83
2022/07/11 01:47:52;;;;;;;3.67;2.10;;;;;;;11.99;100.00;101198.50;4961958;28;20052;-83
2022/07/11 01:50:18;;;;;;;3.80;1.70;;;;;;;12.09;100.00;101199.22;4948343;28;20053;-82
2022/07/11 01:52:46;;;;;;;5.47;2.17;;;;;;;12.19;100.00;101195.53;4953804;28;20035;-83
2022/07/11 01:55:17;;;;;;;3.72;1.70;;;;;;;12.14;100.00;101197.38;4947312;28;20058;-84
2022/07/11 01:57:43;;;;;;;3.08;2.25;;;;;;;12.16;100.00;101198.19;4952326;28;20051;-82
2022/07/11 02:00:11;;;;;;;3.55;2.03;;;;;;;12.16;100.00;101194.69;4946065;28;20055;-83
2022/07/11 02:02:39;;;;;;;4.75;2.22;;;;;;;12.20;100.00;101191.97;4959769;28;20039;-83
2022/07/11 02:05:06;;;;;;;5.43;2.20;;;;;;;12.22;100.00;101195.44;4948987;28;22178;-82
2022/07/11 02:10:18;;;;;;;7.18;2.00;;;;;;;12.32;100.00;101193.50;4957983;28;20091;-83
2022/07/11 02:12:44;;;;;;;5.93;2.08;;;;;;;12.26;100.00;101185.66;4941774;28;20041;-84
2022/07/11 02:15:11;;;;;;;3.70;1.80;;;;;;;12.25;100.00;101190.09;4942754;28;20051;-82
2022/07/11 02:17:38;;;;;;;5.63;2.22;;;;;;;12.26;100.00;101185.66;4947372;28;20089;-83
2022/07/11 02:20:07;;;;;;;6.38;1.70;;;;;;;12.23;100.00;101196.31;4945209;28;20074;-83
2022/07/11 02:22:34;;;;;;;3.45;1.70;;;;;;;12.26;100.00;101190.94;4954202;28;20130;-83
2022/07/11 02:25:01;;;;;;;8.20;2.00;;;;;;;12.28;100.00;101192.69;4928313;29;20106;-83
2022/07/11 02:27:28;;;;;;;4.22;2.00;;;;;;;12.26;100.00;101189.19;4937739;28;20227;-83
2022/07/11 02:29:55;;;;;;;9.27;2.65;;;;;;;12.33;100.00;101195.25;4961792;28;20173;-80
2022/07/11 02:32:22;;;;;;;4.38;2.05;;;;;;;12.33;100.00;101195.25;4962782;28;20039;-81
2022/07/11 02:34:49;;;;;;;3.72;2.05;;;;;;;12.30;100.00;101193.53;4931132;28;20267;-82
2022/07/11 02:37:19;;;;;;;6.65;1.80;;;;;;;12.26;100.00;101196.25;4967065;28;20392;-82
2022/07/11 02:39:47;;;;;;;3.78;1.60;;;;;;;12.26;100.00;101196.25;4939617;28;20661;-82
2022/07/11 02:42:14;;;;;;;5.10;2.25;;;;;;;12.24;100.00;101201.59;4963182;28;20039;-81
2022/07/11 02:44:41;;;;;;;4.40;2.47;;;;;;;12.21;100.00;101209.59;4948710;28;20141;-81
2022/07/11 02:47:08;;;;;;;5.18;2.45;;;;;;;12.21;100.00;101212.25;4982498;28;20069;-82
2022/07/11 02:49:34;;;;;;;3.47;1.88;;;;;;;12.19;100.00;101207.84;4944091;28;20058;-82
2022/07/11 02:52:02;;;;;;;6.32;2.55;;;;;;;12.21;100.00;101203.44;4946994;28;20038;-82
2022/07/11 02:54:29;;;;;;;4.43;1.80;;;;;;;12.16;100.00;101206.16;4929270;28;20106;-82
2022/07/11 02:56:58;;;;;;;5.68;2.22;;;;;;;12.12;100.00;101212.41;4965370;28;20098;-81
2022/07/11 02:59:25;;;;;;;3.55;1.92;;;;;;;12.08;100.00;101202.75;4971167;28;20069;-82
2022/07/11 03:01:51;;;;;;;5.10;1.80;;;;;;;12.09;100.00;101202.72;4966796;28;20046;-82
2022/07/11 03:04:18;;;;;;;4.35;2.33;;;;;;;12.13;100.00;101205.34;4968050;28;20041;-81
2022/07/11 03:06:46;;;;;;;4.80;2.15;;;;;;;12.11;100.00;101205.38;4970262;28;20062;-81
2022/07/11 03:09:12;;;;;;;9.48;2.55;;;;;;;12.05;100.00;101208.13;4971731;28;20049;-82
2022/07/11 03:11:39;;;;;;;5.25;2.08;;;;;;;12.06;100.00;101212.53;4935071;28;20153;-81
2022/07/11 03:14:06;;;;;;;5.22;2.50;;;;;;;12.07;100.00;101207.19;4951751;28;20058;-82
2022/07/11 03:16:33;;;;;;;6.13;2.42;;;;;;;12.00;100.00;101210.84;4965396;28;20054;-82
2022/07/11 03:19:00;;;;;;;11.07;2.08;;;;;;;11.98;100.00;101211.78;4950645;28;20098;-81
2022/07/11 03:21:27;;;;;;;3.42;1.50;;;;;;;11.92;100.00;101217.16;4951721;28;20043;-82
2022/07/11 03:23:54;;;;;;;5.40;2.60;;;;;;;11.95;100.00;101215.38;4976175;28;20097;-82
2022/07/11 03:26:21;;;;;;;4.95;2.38;;;;;;;12.02;100.00;101217.00;4951118;28;20075;-82
2022/07/11 03:28:48;;;;;;;5.97;2.45;;;;;;;11.95;100.00;101211.84;4949568;28;20062;-82
2022/07/11 03:31:14;;;;;;;2.25;1.60;;;;;;;11.93;100.00;101211.84;4964881;28;20074;-82
2022/07/11 03:33:41;;;;;;;5.07;2.30;;;;;;;11.91;100.00;101223.38;4953624;28;20051;-82
2022/07/11 03:36:08;;;;;;;4.68;2.50;;;;;;;11.95;100.00;101218.00;4966513;28;20067;-81
2022/07/11 03:38:35;;;;;;;7.32;2.35;;;;;;;11.97;100.00;101216.19;4968039;28;20098;-83
2022/07/11 03:41:02;;;;;;;5.53;2.45;;;;;;;12.05;100.00;101222.25;4968613;28;20043;-81
2022/07/11 03:43:28;;;;;;;4.80;1.85;;;;;;;12.01;100.00;101219.66;4945955;28;20038;-81
2022/07/11 03:45:55;;;;;;;4.97;2.20;;;;;;;11.99;100.00;101214.41;4944629;28;20050;-81
2022/07/11 03:48:23;;;;;;;5.55;2.40;;;;;;;12.07;100.00;101217.78;4953447;28;20039;-81
2022/07/11 03:50:50;;;;;;;4.13;1.90;;;;;;;12.17;100.00;101212.31;4938299;28;20055;-81
2022/07/11 03:53:17;;;;;;;4.95;2.10;;;;;;;12.25;100.00;101215.69;4960709;28;20029;-80
2022/07/11 03:55:44;;;;;;;5.93;2.28;;;;;;;12.32;100.00;101212.03;4946078;28;20039;-84
2022/07/11 03:58:10;;;;;;;3.65;2.72;;;;;;;12.41;100.00;101211.88;4945340;28;20039;-81
2022/07/11 04:00:39;;;;;;;10.13;2.65;;;;;;;12.48;100.00;101210.84;4937110;28;20051;-81
2022/07/11 04:03:06;;;;;;;4.30;2.50;;;;;;;12.46;100.00;101212.66;4948867;28;20043;-80
2022/07/11 04:05:35;;;;;;;5.10;1.90;;;;;;;12.54;100.00;101212.50;4919631;28;20039;-81
2022/07/11 04:08:02;;;;;;;4.35;2.05;;;;;;;12.56;100.00;101216.88;4956486;28;20134;-82
2022/07/11 04:10:28;;;;;;;5.30;2.05;;;;;;;12.74;100.00;101214.75;4941415;28;20125;-81
2022/07/11 04:12:55;;;;;;;4.85;2.88;;;;;;;12.73;100.00;101208.59;4943719;28;20057;-82
2022/07/11 04:15:22;;;;;;;4.95;2.78;;;;;;;12.83;100.00;101209.25;4940204;28;20047;-82
2022/07/11 04:17:48;;;;;;;4.20;2.50;;;;;;;12.93;100.00;101214.31;4932894;28;20047;-82
2022/07/11 04:20:16;;;;;;;5.07;2.03;;;;;;;13.00;100.00;101214.19;4936240;28;20134;-82
2022/07/11 04:22:42;;;;;;;5.80;2.20;;;;;;;12.97;100.00;101215.16;4951133;28;20043;-82
2022/07/11 04:25:09;;;;;;;3.58;1.90;;;;;;;12.99;100.00;101218.63;4950119;28;20065;-82
2022/07/11 04:27:36;;;;;;;6.97;3.08;;;;;;;12.90;100.00;101221.47;4948586;28;20045;-83
2022/07/11 04:30:07;;;;;;;5.50;2.65;;;;;;;12.82;100.00;101216.34;4920881;28;20135;-82
2022/07/11 04:32:35;;;;;;;5.03;2.30;;;;;;;12.75;100.00;101217.38;4924928;28;20035;-82
2022/07/11 04:35:06;;;;;;;4.57;2.40;;;;;;;12.70;100.00;101221.91;4929544;28;20105;-83
2022/07/11 04:37:33;;;;;;;3.75;2.00;;;;;;;12.65;100.00;101215.81;4929286;28;20061;-81
2022/07/11 04:39:59;;;;;;;10.82;2.55;;;;;;;12.78;100.00;101225.28;4946470;28;20074;-82
2022/07/11 04:42:26;;;;;;;14.95;3.60;;;;;;;12.76;100.00;101213.81;4933248;28;20035;-82
2022/07/11 04:44:53;;;;;;;4.72;2.00;;;;;;;12.71;100.00;101214.81;4939262;28;20051;-82
2022/07/11 04:47:19;;;;;;;7.03;2.38;;;;;;;12.78;100.00;101221.72;4920444;28;20042;-82
2022/07/11 04:49:46;;;;;;;4.40;2.30;;;;;;;12.75;100.00;101221.81;4942466;28;20047;-82
2022/07/11 04:52:13;;;;;;;4.95;2.40;;;;;;;12.75;100.00;101222.66;4932744;28;20138;-82
2022/07/11 04:54:40;;;;;;;5.40;2.05;;;;;;;12.75;100.00;101227.09;4931860;28;20065;-82
2022/07/11 04:57:07;;;;;;;5.53;2.92;;;;;;;12.80;100.00;101220.81;4933136;28;20042;-82
2022/07/11 04:59:34;;;;;;;5.20;2.20;;;;;;;12.86;100.00;101233.94;4937894;28;20057;-83
2022/07/11 05:02:01;;;;;;;8.40;2.40;;;;;;;12.94;100.00;101228.47;4957680;28;20039;-82
2022/07/11 05:04:28;;;;;;;7.55;2.55;;;;;;;13.17;100.00;101222.66;4922600;28;20043;-82
2022/07/11 05:06:55;;;;;;;5.75;3.10;;;;;;;13.44;100.00;101216.75;4951454;28;20057;-83
2022/07/11 05:09:21;;;;;;;5.60;2.22;;;;;;;13.65;100.00;101212.72;4924652;28;20058;-83
2022/07/11 05:11:48;;;;;;;3.63;2.10;;;;;;;13.65;100.00;101211.84;4932592;28;20050;-83
2022/07/11 05:14:15;;;;;;;5.20;2.90;;;;;;;13.64;100.00;101220.75;4942393;28;20049;-83
2022/07/11 05:16:42;;;;;;;6.18;2.20;;;;;;;13.63;100.00;101230.50;4939407;28;20126;-83
2022/07/11 05:19:09;;;;;;;4.80;2.15;;;;;;;13.64;100.00;101221.59;4924292;29;20044;-83
2022/07/11 05:21:35;;;;;;;3.65;2.13;;;;;;;13.61;100.00;101234.06;4909224;29;20609;-81
2022/07/11 05:24:02;;;;;;;4.40;1.88;;;;;;;13.60;100.00;101237.63;4925214;29;20051;-82
2022/07/11 05:26:29;;;;;;;7.00;2.80;;;;;;;13.55;100.00;101240.41;4923425;29;20047;-83
2022/07/11 05:28:56;;;;;;;5.45;1.83;;;;;;;13.62;100.00;101244.69;4906688;29;20484;-83
2022/07/11 05:31:23;;;;;;;4.72;1.90;;;;;;;13.69;100.00;101250.69;4920542;28;20736;-84
2022/07/11 05:33:49;;;;;;;8.02;2.60;;;;;;;13.73;100.00;101253.25;4924862;29;20039;-83
2022/07/11 05:36:16;;;;;;;7.05;2.25;;;;;;;13.89;100.00;101250.22;4916270;28;20500;-83
2022/07/11 05:38:43;;;;;;;5.70;1.88;;;;;;;14.05;100.00;101254.25;4923490;29;20043;-84
2022/07/11 05:41:10;;;;;;;3.25;1.90;;;;;;;14.47;100.00;101260.25;4921195;29;20113;-83
2022/07/11 05:43:37;;;;;;;5.07;2.08;;;;;;;15.47;99.76;101258.25;4922763;29;20039;-83
2022/07/11 05:46:04;;;;;;;5.38;1.67;;;;;;;17.92;83.13;101245.81;4921307;29;20086;-82
2022/07/11 05:48:31;;;;;;;5.95;2.25;;;;;;;20.28;69.01;101249.16;4958047;28;20051;-83
2022/07/11 05:50:58;;;;;;;3.97;1.90;;;;;;;22.22;58.53;101251.00;4950747;28;20064;-83
2022/07/11 05:53:25;;;;;;;4.20;1.85;;;;;;;23.47;53.66;101248.59;4938939;28;20035;-83
2022/07/11 05:55:52;;;;;;;2.35;1.40;;;;;;;24.66;49.20;101245.97;4921854;29;20047;-83
2022/07/11 05:58:19;;;;;;;3.20;1.58;;;;;;;25.16;46.44;101252.38;4907541;28;20101;-83
2022/07/11 06:00:45;;;;;;;3.90;1.77;;;;;;;25.86;44.93;101265.28;4921841;29;20111;-83
2022/07/11 06:03:12;;;;;;;5.22;1.50;;;;;;;25.90;45.41;101266.78;4924695;28;20094;-83
2022/07/11 06:05:39;;;;;;;2.97;1.50;;;;;;;25.22;45.40;101263.59;4921558;29;20043;-83
2022/07/11 06:10:52;;;;;;;3.83;1.40;;;;;;;25.63;45.49;101264.22;4926133;29;20055;-83
2022/07/11 06:13:19;;;;;;;3.65;1.80;;;;;;;24.94;47.79;101261.97;4927740;29;20039;-80
2022/07/11 06:15:47;;;;;;;2.67;1.65;;;;;;;24.25;48.07;101260.47;4910132;29;20054;-83
2022/07/11 06:18:13;;;;;;;4.57;1.60;;;;;;;23.51;51.32;101263.59;4948323;29;20050;-83
2022/07/11 06:20:40;;;;;;;7.60;1.80;;;;;;;22.91;53.72;101261.16;4949786;29;20528;-83
2022/07/11 06:23:09;;;;;;;3.60;1.70;;;;;;;22.06;54.01;101264.47;4937662;28;20054;-83
2022/07/11 06:25:36;;;;;;;3.63;1.60;;;;;;;22.06;56.11;101264.47;4950440;28;20247;-83
2022/07/11 06:28:04;;;;;;;4.03;1.50;;;;;;;21.59;57.58;101268.94;4919002;29;20050;-83
2022/07/11 06:30:31;;;;;;;4.75;1.70;;;;;;;21.63;59.53;101258.91;4939898;28;20055;-82
2022/07/11 06:32:59;;;;;;;3.65;1.30;;;;;;;21.08;58.29;101268.16;4936249;29;20039;-84
2022/07/11 06:35:25;;;;;;;4.85;1.52;;;;;;;20.45;60.15;101269.78;4934746;28;20047;-83
2022/07/11 06:37:52;;;;;;;4.97;1.60;;;;;;;20.35;61.07;101271.19;4930468;29;20047;-85
2022/07/11 06:40:19;;;;;;;6.15;1.40;;;;;;;20.25;61.33;101260.03;4941900;28;20048;-83
2022/07/11 06:42:46;;;;;;;2.35;1.30;;;;;;;20.32;62.29;101261.47;4925542;28;20091;-82
2022/07/11 06:45:13;;;;;;;3.05;1.70;;;;;;;20.84;61.75;101261.44;4935088;28;20059;-82
2022/07/11 06:47:40;;;;;;;10.88;1.90;;;;;;;21.20;60.39;101257.72;4916650;29;20071;-84
2022/07/11 06:50:07;;;;;;;5.35;1.60;;;;;;;21.60;58.78;101259.06;4934098;29;20051;-84
2022/07/11 06:52:35;;;;;;;3.75;1.60;;;;;;;21.31;56.72;101266.94;4915033;29;20408;-81
2022/07/11 06:55:02;;;;;;;5.13;1.38;;;;;;;21.41;59.21;101267.28;4931581;28;20068;-84
2022/07/11 06:57:28;;;;;;;3.45;1.45;;;;;;;21.80;59.09;101263.31;4914873;29;20508;-84
2022/07/11 06:59:55;;;;;;;2.97;1.30;;;;;;;21.82;55.65;101266.78;4914968;29;20474;-83
2022/07/11 07:02:27;;;;;;;5.63;1.63;;;;;;;21.19;55.97;101269.38;4912213;28;20047;-83
2022/07/11 07:04:54;;;;;;;2.92;1.40;;;;;;;21.34;57.06;101269.44;4913241;28;20048;-81
2022/07/11 07:07:21;;;;;;;105.43;14.98;;;;;;;21.67;56.36;101263.13;4909933;28;20042;-82
2022/07/11 07:09:47;;;;;;;3.08;1.33;;;;;;;21.88;54.33;101256.53;4911196;29;20075;-84
2022/07/11 07:12:17;;;;;;;2.03;1.20;;;;;;;22.19;54.31;101262.81;4933650;29;20062;-83
2022/07/11 07:14:44;;;;;;;5.28;1.20;;;;;;;22.36;54.16;101268.06;4927911;28;20786;-84
2022/07/11 07:17:11;;;;;;;2.88;1.17;;;;;;;22.40;54.40;101269.63;4952208;28;20634;-85
2022/07/11 07:19:38;;;;;;;2.25;1.40;;;;;;;22.34;52.06;101277.19;4927523;28;20035;-85
2022/07/11 07:22:08;;;;;;;3.42;1.52;;;;;;;22.17;52.79;101281.75;4928824;29;20039;-82
2022/07/11 07:24:38;;;;;;;4.72;1.40;;;;;;;22.09;52.28;101275.94;4933034;28;20037;-85
2022/07/11 07:27:06;;;;;;;3.20;1.30;;;;;;;22.25;53.61;101283.97;4923395;28;20063;-83
2022/07/11 07:29:35;;;;;;;4.07;1.70;;;;;;;22.57;53.81;101282.06;4954438;28;20042;-84
2022/07/11 07:32:02;;;;;;;3.75;1.35;;;;;;;23.09;52.76;101278.00;4938951;28;20039;-83
2022/07/11 07:34:30;;;;;;;2.35;1.30;;;;;;;22.72;49.96;101277.56;4941496;28;20038;-84
2022/07/11 07:36:56;;;;;;;3.40;1.52;;;;;;;22.35;51.99;101287.00;4938564;28;20129;-83
2022/07/11 07:39:23;;;;;;;5.13;1.23;;;;;;;21.77;52.04;101283.16;4943147;28;20047;-85
2022/07/11 07:41:50;;;;;;;2.65;1.20;;;;;;;21.63;54.58;101283.97;4927793;28;20105;-83
2022/07/11 07:44:17;;;;;;;2.33;1.33;;;;;;;21.95;54.31;101283.09;4940793;28;20062;-84
2022/07/11 07:46:44;;;;;;;2.95;1.27;;;;;;;22.12;53.09;101285.69;4938772;28;20117;-84
2022/07/11 07:49:11;;;;;;;2.75;1.30;;;;;;;22.26;51.94;101285.72;4959258;28;20035;-84
2022/07/11 07:51:38;;;;;;;7.47;2.05;;;;;;;22.44;53.05;101295.38;4935038;28;20130;-84
2022/07/11 07:54:04;;;;;;;3.22;1.10;;;;;;;22.94;50.83;101290.59;4941922;28;20672;-86
2022/07/11 07:56:31;;;;;;;3.50;1.40;;;;;;;23.34;48.96;101280.88;4941003;28;20136;-84
2022/07/11 07:59:01;;;;;;;2.22;1.20;;;;;;;23.63;48.60;101279.03;4948915;28;20070;-84
2022/07/11 08:01:38;;;;;;;2.75;1.33;;;;;;;23.50;48.41;101297.81;4937312;28;20057;-84
2022/07/11 08:04:06;;;;;;;3.25;1.42;;;;;;;22.56;49.47;101291.09;4959154;23;20114;-82
2022/07/11 08:06:34;;;;;;;3.70;1.30;;;;;;;22.17;53.66;101295.19;4906569;29;20055;-81
2022/07/11 08:09:02;;;;;;;2.05;1.08;;;;;;;21.52;52.51;101305.19;4917061;29;20059;-80
2022/07/11 08:11:30;;;;;;;3.15;1.20;;;;;;;22.10;52.61;101282.19;4916300;29;20126;-82
2022/07/11 08:14:03;;;;;;;2.15;1.30;;;;;;;22.52;51.36;101286.84;4911511;29;20127;-82
2022/07/11 08:16:31;;;;;;;2.70;1.10;;;;;;;22.74;50.79;101297.19;4915367;29;20150;-80
2022/07/11 08:19:00;;;;;;;4.05;1.10;;;;;;;22.43;52.24;101290.97;4951069;28;20047;-81
2022/07/11 08:21:29;;;;;;;3.40;1.42;;;;;;;21.96;51.65;101295.56;4885331;29;20067;-81
2022/07/11 08:23:57;;;;;;;4.28;1.13;;;;;;;21.92;53.50;101287.66;4933507;29;20110;-80
2022/07/11 08:26:24;;;;;;;2.78;1.35;;;;;;;21.76;52.42;101289.50;4915002;29;20054;-80
2022/07/11 08:29:00;;;;;;;4.65;1.38;;;;;;;21.41;53.05;101293.31;4911068;29;20052;-80
2022/07/11 08:31:26;;;;;;;2.88;1.15;;;;;;;21.12;55.15;101292.19;4926148;28;20064;-80
2022/07/11 08:33:53;;;;;;;2.60;1.38;;;;;;;20.68;56.18;101292.72;4934901;29;20042;-81
2022/07/11 08:36:20;;;;;;;3.20;1.30;;;;;;;20.46;56.65;101290.31;4916414;29;20043;-81
2022/07/11 08:38:48;;;;;;;3.95;1.10;;;;;;;20.13;58.58;101293.72;4903177;29;20072;-79
2022/07/11 08:41:16;;;;;;;3.20;1.50;;;;;;;20.11;59.00;101292.94;4904684;29;20135;-81
2022/07/11 08:43:43;;;;;;;12.25;2.47;;;;;;;20.08;60.28;101302.94;4920957;29;20063;-81
2022/07/11 08:46:11;;;;;;;4.32;1.30;;;;;;;20.02;60.60;101298.78;4926714;29;20050;-80
2022/07/11 08:48:41;;;;;;;2.47;1.40;;;;;;;20.28;61.44;101296.59;4904696;29;20102;-81
2022/07/11 08:51:08;;;;;;;3.15;1.38;;;;;;;21.12;58.58;101300.25;4938226;29;20046;-79
2022/07/11 08:53:40;;;;;;;2.50;1.00;;;;;;;22.05;53.15;101287.84;4908449;29;20039;-81
2022/07/11 08:56:10;;;;;;;2.15;1.25;;;;;;;22.74;49.62;101289.97;4922409;29;21759;-79
2022/07/11 08:58:37;;;;;;;4.82;2.10;;;;;;;23.14;48.06;101286.69;4939476;29;20059;-81
2022/07/11 09:01:06;;;;;;;28.67;11.10;;;;;;;23.33;48.12;101286.38;4924125;29;20043;-80
2022/07/11 09:03:33;;;;;;;2.58;1.50;;;;;;;22.90;48.07;101297.16;4907758;29;20803;-81
2022/07/11 09:06:00;;;;;;;4.80;1.23;;;;;;;22.47;49.52;101291.66;4929650;29;20056;-80
2022/07/11 09:08:29;;;;;;;2.70;1.15;;;;;;;22.01;49.29;101297.03;4904408;29;20106;-79
2022/07/11 09:10:56;;;;;;;2.25;1.00;;;;;;;22.29;47.46;101293.63;4915877;29;20050;-79
2022/07/11 09:13:27;;;;;;;2.28;1.27;;;;;;;22.85;48.43;101293.88;4934942;29;20123;-79
2022/07/11 09:16:01;;;;;;;1.85;1.08;;;;;;;23.48;48.37;101288.94;4924490;29;20051;-81
2022/07/11 09:18:32;;;;;;;;;;;;;;;22.87;48.40;101289.25;4927855;29;20131;-81
2022/07/11 09:26:49;;;;;;;2.35;1.02;;;;;;;22.71;50.02;101292.88;4918292;29;20127;-80
2022/07/11 09:29:18;;;;;;;4.55;1.17;;;;;;;23.34;47.29;101278.19;4903734;29;20569;-79
2022/07/11 09:31:45;;;;;;;2.33;0.90;;;;;;;23.87;45.92;101279.22;4930211;29;20094;-80
2022/07/11 09:34:23;;;;;;;4.20;1.23;;;;;;;24.33;41.81;101277.06;4916476;29;20048;-81
2022/07/11 09:36:54;;;;;;;1.48;0.90;;;;;;;24.83;43.51;101274.53;4899090;29;20126;-82
2022/07/11 09:39:28;;;;;;;1.92;1.15;;;;;;;24.74;42.93;101277.88;4933296;29;20075;-80
2022/07/11 09:41:55;;;;;;;3.33;1.10;;;;;;;24.33;43.77;101287.84;4883203;29;20526;-80
2022/07/11 09:44:32;;;;;;;3.88;1.20;;;;;;;23.89;46.36;101292.66;4913553;29;20493;-79
2022/07/11 09:47:00;;;;;;;2.67;1.30;;;;;;;23.80;46.84;101283.34;4932839;29;20737;-81
2022/07/11 09:49:31;;;;;;;1.15;0.93;;;;;;;23.88;42.75;101281.00;4946059;28;20051;-81
2022/07/11 09:52:12;;;;;;;3.63;1.40;;;;;;;24.25;43.44;101276.69;4916079;29;20052;-81
2022/07/11 09:54:54;;;;;;;2.20;0.82;;;;;;;24.52;42.59;101279.34;4916413;29;20146;-80
2022/07/11 09:57:37;;;;;;;2.25;1.25;;;;;;;24.58;39.54;101272.66;4900971;29;20506;-81
2022/07/11 10:00:12;;;;;;;3.58;0.95;;;;;;;24.21;40.18;101275.13;4913349;29;20074;-80
2022/07/11 10:02:39;;;;;;;3.20;1.42;;;;;;;23.39;42.97;101277.91;4928510;29;20040;-80
2022/07/11 10:05:06;;;;;;;2.00;1.00;;;;;;;22.94;44.22;101269.03;4915253;29;20040;-79
2022/07/11 10:07:33;;;;;;;1.75;1.10;;;;;;;22.40;47.01;101275.00;4899903;29;20046;-80
2022/07/11 10:10:01;;;;;;;1.48;1.17;;;;;;;22.10;47.79;101283.06;4916670;29;20512;-80
2022/07/11 10:12:29;;;;;;;1.48;1.10;;;;;;;22.04;48.37;101287.94;4899170;29;20060;-81
2022/07/11 10:14:56;;;;;;;56.28;51.72;;;;;;;21.81;47.22;101292.81;4897724;29;20067;-79
2022/07/11 10:17:41;;;;;;;3.72;2.75;;;;;;;22.23;45.09;101275.16;4944105;28;20497;-79
2022/07/11 10:20:31;;;;;;;1.67;1.10;;;;;;;22.51;44.19;101281.56;4911792;29;20059;-79
2022/07/11 10:23:10;;;;;;;1.38;1.08;;;;;;;22.92;42.88;101276.38;4931685;29;20158;-80
2022/07/11 10:25:41;;;;;;;2.75;1.15;;;;;;;23.50;42.42;101278.94;4897167;29;20043;-80
2022/07/11 10:28:32;;;;;;;2.47;1.90;;;;;;;23.61;41.65;101277.38;4928089;29;20044;-78
2022/07/11 10:31:03;;;;;;;3.15;2.72;;;;;;;22.98;44.78;101290.31;4915940;29;20139;-80
2022/07/11 10:33:30;;;;;;;3.53;1.48;;;;;;;22.55;44.89;101296.59;4943805;28;20032;-79
2022/07/11 10:35:58;;;;;;;2.38;1.23;;;;;;;22.05;46.82;101300.41;4917947;29;20047;-80
2022/07/11 10:38:25;;;;;;;43.55;6.75;;;;;;;21.93;48.28;101294.78;4915928;29;20035;-80
2022/07/11 10:40:56;;;;;;;3.78;1.10;;;;;;;21.55;46.72;101298.78;4900341;29;20074;-81
2022/07/11 10:43:39;;;;;;;3.50;1.38;;;;;;;21.37;47.62;101297.13;4916210;29;20130;-81
2022/07/11 10:46:08;;;;;;;2.83;0.80;;;;;;;21.38;48.35;101297.03;4914671;29;20458;-81
2022/07/11 10:49:15;;;;;;;2.10;1.20;;;;;;;21.49;49.14;101302.69;4903096;29;20043;-83
2022/07/11 10:51:47;;;;;;;2.50;0.90;;;;;;;21.39;49.39;101296.09;4930247;29;20441;-80
2022/07/11 10:54:48;;;;;;;23.80;3.28;;;;;;;21.45;49.63;101298.44;4934209;28;20039;-80
2022/07/11 10:57:28;;;;;;;3.72;1.00;;;;;;;21.44;48.75;101279.69;4900193;29;20134;-79
2022/07/11 11:00:00;;;;;;;1.35;0.70;;;;;;;21.35;50.72;101290.00;4930108;29;20047;-79
2022/07/11 11:02:28;;;;;;;2.03;0.90;;;;;;;21.56;50.80;101289.78;4900045;29;20052;-79
2022/07/11 11:05:00;;;;;;;1.88;1.10;;;;;;;21.48;48.66;101294.72;4913711;29;20747;-80
2022/07/11 11:07:36;;;;;;;2.08;0.90;;;;;;;22.06;49.64;101296.75;4914372;29;20043;-80
2022/07/11 11:10:29;;;;;;;8.77;2.58;;;;;;;22.63;48.84;101297.00;4913518;29;20421;-79
2022/07/11 11:13:05;;;;;;;1.45;0.93;;;;;;;22.66;45.97;101291.41;4929589;29;20051;-79
2022/07/11 11:15:49;;;;;;;1.10;0.90;;;;;;;22.54;48.73;101306.50;4911189;29;20130;-78
2022/07/11 11:18:21;;;;;;;1.25;1.05;;;;;;;22.46;48.10;101300.69;4915931;29;20513;-80
2022/07/11 11:21:00;;;;;;;2.42;1.30;;;;;;;22.19;47.92;101300.50;4900152;29;20106;-79
2022/07/11 11:23:31;;;;;;;1.33;0.90;;;;;;;22.27;46.35;101303.59;4915443;29;20059;-79
2022/07/11 11:26:05;;;;;;;1.30;0.95;;;;;;;22.46;48.15;101311.47;4914571;29;20127;-80
2022/07/11 11:28:32;;;;;;;2.38;1.10;;;;;;;22.59;46.83;101308.91;4913347;29;20048;-80
2022/07/11 11:31:01;;;;;;;1.48;0.80;;;;;;;22.65;46.22;101293.25;4910197;29;20055;-80
2022/07/11 11:33:36;;;;;;;2.60;0.90;;;;;;;22.65;46.98;101295.94;4938865;28;20050;-80
2022/07/11 11:36:03;;;;;;;14.73;2.67;;;;;;;22.83;46.37;101293.94;4894328;29;20551;-79
2022/07/11 11:38:35;;;;;;;0.90;0.80;;;;;;;22.70;46.40;101292.94;4895308;29;20048;-79
2022/07/11 11:41:01;;;;;;;3.78;1.20;;;;;;;22.57;47.80;101292.84;4921381;29;20062;-80